createdAt,value
2017-06-02T00:00:02.634Z,99.99
2017-06-02T00:05:02.951Z,99.99
2017-06-02T00:10:03.443Z,99.99
2017-06-02T00:15:02.922Z,99.99
2017-06-02T00:20:03.402Z,99.99
2017-06-02T00:25:02.728Z,99.99
2017-06-02T00:30:03.137Z,99.99
2017-06-02T00:35:02.637Z,99.99
2017-06-02T00:40:03.128Z,99.99
2017-06-02T00:45:03.579Z,99.99
2017-06-02T00:50:03.069Z,99.99
2017-06-02T00:55:03.476Z,99.99
2017-06-02T01:00:02.802Z,99.99
2017-06-02T01:05:03.100Z,99.99
2017-06-02T01:10:03.472Z,99.99
2017-06-02T01:15:02.806Z,99.99
2017-06-02T01:20:03.156Z,99.99
2017-06-02T01:25:02.656Z,99.99
2017-06-02T01:30:03.225Z,99.99
2017-06-02T01:35:03.534Z,99.99
2017-06-02T01:40:02.934Z,99.99
2017-06-02T01:45:03.452Z,99.99
2017-06-02T01:50:02.794Z,99.99
2017-06-02T01:55:03.113Z,99.99
2017-06-02T02:00:03.451Z,99.99
2017-06-02T02:05:02.991Z,99.99
2017-06-02T02:10:03.522Z,99.99
2017-06-02T02:15:03.344Z,99.99
2017-06-02T02:20:02.676Z,99.99
2017-06-02T02:25:02.998Z,99.99
2017-06-02T02:30:03.379Z,99.99
2017-06-02T02:35:02.821Z,99.99
2017-06-02T02:40:03.250Z,99.99
2017-06-02T02:45:02.755Z,99.85
2017-06-02T02:50:03.215Z,99.95
2017-06-02T02:55:03.517Z,99.95
2017-06-02T03:00:02.911Z,99.8
2017-06-02T03:05:03.376Z,99.62
2017-06-02T03:10:02.823Z,99.52
2017-06-02T03:15:03.230Z,99.43
2017-06-02T03:20:02.680Z,99.43
2017-06-02T03:25:03.187Z,99.33
2017-06-02T03:30:03.582Z,99.33
2017-06-02T03:35:02.945Z,99.43
2017-06-02T03:40:03.311Z,99.43
2017-06-02T03:45:02.630Z,99.33
2017-06-02T03:50:02.949Z,99.23
2017-06-02T03:55:03.425Z,99.23
2017-06-02T04:00:02.924Z,99.43
2017-06-02T04:05:03.358Z,99.62
2017-06-02T04:10:02.903Z,99.57
2017-06-02T04:15:03.768Z,99.57
2017-06-02T04:20:03.347Z,99.57
2017-06-02T04:25:02.826Z,99.57
2017-06-02T04:30:03.488Z,99.71
2017-06-02T04:35:02.863Z,99.9
2017-06-02T04:40:03.447Z,99.99
2017-06-02T04:45:02.743Z,99.99
2017-06-02T04:50:03.067Z,99.99
2017-06-02T04:55:03.476Z,99.99
2017-06-02T05:00:02.945Z,99.99
2017-06-02T05:05:03.481Z,99.99
2017-06-02T05:10:02.971Z,99.99
2017-06-02T05:15:03.456Z,99.99
2017-06-02T05:20:02.754Z,99.99
2017-06-02T05:25:03.047Z,99.99
2017-06-02T05:30:03.549Z,99.99
2017-06-02T05:35:03.001Z,99.99
2017-06-02T05:40:03.382Z,99.99
2017-06-02T05:45:02.736Z,99.99
2017-06-02T05:50:03.045Z,99.99
2017-06-02T05:55:03.338Z,99.99
2017-06-02T06:00:02.636Z,99.99
2017-06-02T06:05:02.936Z,99.99
2017-06-02T06:10:03.311Z,99.99
2017-06-02T06:15:02.823Z,99.99
2017-06-02T06:20:03.332Z,99.99
2017-06-02T06:25:02.628Z,99.99
2017-06-02T06:30:03.035Z,99.99
2017-06-02T06:35:03.398Z,99.99
2017-06-02T06:40:02.762Z,99.99
2017-06-02T06:45:03.039Z,99.99
2017-06-02T06:50:03.481Z,99.99
2017-06-02T06:55:02.855Z,99.89
2017-06-02T07:00:03.204Z,98.78
2017-06-02T07:05:03.540Z,95.64
2017-06-02T07:10:03.087Z,94.67
2017-06-02T07:15:03.557Z,90.45
2017-06-02T07:20:03.012Z,85.4
2017-06-02T07:25:03.325Z,79.41
2017-06-02T07:30:02.901Z,78.21
2017-06-02T07:35:03.347Z,76.04
2017-06-02T07:40:02.879Z,75.36
2017-06-02T07:45:03.194Z,74.97
2017-06-02T07:50:02.704Z,72.25
2017-06-02T07:55:03.015Z,70.86
2017-06-02T08:00:03.328Z,70.61
2017-06-02T08:05:02.902Z,69.7
2017-06-02T08:10:03.430Z,66.92
2017-06-02T08:15:02.804Z,66.63
2017-06-02T08:20:03.149Z,66.66
2017-06-02T08:25:02.600Z,65.63
2017-06-02T08:30:02.958Z,62.63
2017-06-02T08:35:03.353Z,61.89
2017-06-02T08:40:02.701Z,60.46
2017-06-02T08:45:03.194Z,58.53
2017-06-02T08:50:03.604Z,57.71
2017-06-02T08:55:02.966Z,58.07
2017-06-02T09:00:03.560Z,57.32
2017-06-02T09:05:03.029Z,56.58
2017-06-02T09:10:03.424Z,55.86
2017-06-02T09:15:02.766Z,54.77
2017-06-02T09:20:03.140Z,54.69
2017-06-02T09:25:02.708Z,53.77
2017-06-02T09:30:03.131Z,52.5
2017-06-02T09:35:03.597Z,51.56
2017-06-02T09:40:03.092Z,51.37
2017-06-02T09:45:02.591Z,51.17
2017-06-02T09:50:03.106Z,49.82
2017-06-02T09:55:03.506Z,50.2
2017-06-02T10:00:02.854Z,49.68
2017-06-02T10:05:03.278Z,49.23
2017-06-02T10:10:02.884Z,48.67
2017-06-02T10:15:03.235Z,47.83
2017-06-02T10:20:03.045Z,46.99
2017-06-02T10:25:03.468Z,47.22
2017-06-02T10:30:02.927Z,47.98
2017-06-02T10:35:03.513Z,47.8
2017-06-02T10:40:03.383Z,47.83
2017-06-02T10:45:02.879Z,48.05
2017-06-02T10:50:03.425Z,48.18
2017-06-02T10:55:02.918Z,48.96
2017-06-02T11:00:03.431Z,47.53
2017-06-02T11:05:02.979Z,47.69
2017-06-02T11:10:02.947Z,48.23
2017-06-02T11:15:02.678Z,48.5
2017-06-02T11:20:02.668Z,49.43
2017-06-02T11:25:03.534Z,49.46
2017-06-02T11:30:02.954Z,49.36
2017-06-02T11:35:03.423Z,49.33
2017-06-02T11:40:02.696Z,49.51
2017-06-02T11:45:02.801Z,50.07
2017-06-02T11:50:02.825Z,50.54
2017-06-02T11:55:02.593Z,50.15
2017-06-02T12:00:03.272Z,49.7
2017-06-02T12:05:03.245Z,48.13
2017-06-02T12:10:03.059Z,47.86
2017-06-02T12:15:03.476Z,47.86
2017-06-02T12:20:03.015Z,48.52
2017-06-02T12:25:03.470Z,49.58
2017-06-02T12:30:02.733Z,50.14
2017-06-02T12:35:03.391Z,48.94
2017-06-02T12:40:03.101Z,48.37
2017-06-02T12:45:03.267Z,48.03
2017-06-02T12:50:03.018Z,47.19
2017-06-02T12:55:03.033Z,46.1
2017-06-02T13:00:03.312Z,46.2
2017-06-02T13:05:02.686Z,45.68
2017-06-02T13:10:02.872Z,47.13
2017-06-02T13:15:03.125Z,49.24
2017-06-02T13:20:03.376Z,48.05
2017-06-02T13:25:02.832Z,47.39
2017-06-02T13:30:03.210Z,46.97
2017-06-02T13:35:03.321Z,48.21
2017-06-02T13:40:02.718Z,48.55
2017-06-02T13:45:02.937Z,49.58
2017-06-02T13:50:02.905Z,49.85
2017-06-02T13:55:03.103Z,50.32
2017-06-02T14:00:03.479Z,48.62
2017-06-02T14:05:03.162Z,48.18
2017-06-02T14:10:02.618Z,47.74
2017-06-02T14:15:03.141Z,49.33
2017-06-02T14:20:03.517Z,50.24
2017-06-02T14:25:02.825Z,51.07
2017-06-02T14:30:03.282Z,51.17
2017-06-02T14:35:02.623Z,51.76
2017-06-02T14:40:02.834Z,52.08
2017-06-02T14:45:02.726Z,50.76
2017-06-02T14:50:02.869Z,51
2017-06-02T14:55:03.054Z,49.55
2017-06-02T15:00:03.113Z,49.85
2017-06-02T15:05:03.259Z,48.91
2017-06-02T15:10:03.308Z,48.4
2017-06-02T15:15:03.356Z,48.91
2017-06-02T15:20:02.565Z,48.86
2017-06-02T15:25:02.803Z,49.92
2017-06-02T15:30:03.109Z,50.51
2017-06-02T15:35:02.683Z,49.73
2017-06-02T15:40:02.824Z,50.22
2017-06-02T15:45:02.689Z,49.82
2017-06-02T15:50:03.539Z,51.22
2017-06-02T15:55:03.438Z,52.1
2017-06-02T16:00:03.502Z,51.78
2017-06-02T16:05:02.592Z,52.5
2017-06-02T16:10:02.826Z,51.98
2017-06-02T16:15:03.021Z,52.64
2017-06-02T16:20:03.367Z,52.83
2017-06-02T16:25:02.706Z,53.3
2017-06-02T16:30:02.763Z,54.03
2017-06-02T16:35:02.616Z,54.98
2017-06-02T16:40:02.999Z,55.54
2017-06-02T16:45:03.117Z,56.12
2017-06-02T16:50:02.945Z,56.12
2017-06-02T16:55:02.685Z,56.87
2017-06-02T17:00:02.877Z,56.77
2017-06-02T17:05:03.480Z,57.34
2017-06-02T17:10:02.853Z,57.79
2017-06-02T17:15:03.226Z,58.58
2017-06-02T17:20:02.651Z,59.06
2017-06-02T17:25:03.042Z,59.26
2017-06-02T17:30:02.703Z,59.64
2017-06-02T17:35:03.289Z,59.03
2017-06-02T17:40:02.934Z,59.13
2017-06-02T17:45:03.461Z,59.33
2017-06-02T17:50:03.077Z,59.42
2017-06-02T17:55:02.834Z,60.1
2017-06-02T18:00:03.547Z,60.3
2017-06-02T18:05:03.006Z,60.08
2017-06-02T18:10:02.807Z,60.92
2017-06-02T18:15:03.252Z,61.11
2017-06-02T18:20:03.475Z,61.47
2017-06-02T18:25:03.441Z,62.74
2017-06-02T18:30:02.846Z,62.9
2017-06-02T18:35:03.597Z,63.29
2017-06-02T18:40:02.786Z,64.04
2017-06-02T18:45:02.753Z,65.66
2017-06-02T18:50:02.902Z,66.14
2017-06-02T18:55:03.576Z,66.5
2017-06-02T19:00:02.653Z,66.79
2017-06-02T19:05:02.671Z,67.73
2017-06-02T19:10:03.299Z,68.41
2017-06-02T19:15:03.363Z,69.06
2017-06-02T19:20:03.233Z,69.93
2017-06-02T19:25:03.070Z,70.37
2017-06-02T19:30:02.863Z,71.22
2017-06-02T19:35:03.507Z,72.09
2017-06-02T19:40:03.459Z,72.83
2017-06-02T19:45:03.492Z,73.02
2017-06-02T19:50:02.780Z,73.08
2017-06-02T19:55:03.013Z,73.33
2017-06-02T20:00:03.563Z,73.82
2017-06-02T20:05:03.008Z,74.27
2017-06-02T20:10:02.709Z,74.75
2017-06-02T20:15:02.705Z,74.9
2017-06-02T20:20:03.309Z,75.29
2017-06-02T20:25:02.893Z,75.54
2017-06-02T20:30:02.873Z,75.93
2017-06-02T20:35:02.769Z,77.25
2017-06-02T20:40:03.469Z,78.08
2017-06-02T20:45:03.359Z,78.94
2017-06-02T20:50:02.611Z,79.91
2017-06-02T20:55:02.658Z,80.45
2017-06-02T21:00:02.846Z,81.32
2017-06-02T21:05:02.701Z,82.09
2017-06-02T21:10:02.734Z,83.25
2017-06-02T21:15:03.435Z,84.65
2017-06-02T21:20:03.259Z,86.48
2017-06-02T21:25:02.717Z,87.54
2017-06-02T21:30:03.078Z,88.41
2017-06-02T21:35:03.515Z,89.33
2017-06-02T21:40:02.923Z,91.16
2017-06-02T21:45:03.518Z,92.32
2017-06-02T21:50:02.890Z,93.43
2017-06-02T21:55:03.214Z,94.39
2017-06-02T22:00:02.705Z,95.64
2017-06-02T22:05:03.180Z,96.7
2017-06-02T22:10:03.568Z,97.47
2017-06-02T22:15:02.942Z,97.91
2017-06-02T22:20:03.365Z,98.58
2017-06-02T22:25:02.748Z,99.26
2017-06-02T22:30:02.756Z,99.64
2017-06-02T22:35:03.095Z,99.99
2017-06-02T22:40:03.444Z,99.99
2017-06-02T22:45:02.795Z,99.99
2017-06-02T22:50:03.204Z,99.99
2017-06-02T22:55:03.496Z,99.99
2017-06-02T23:00:02.924Z,99.99
2017-06-02T23:05:03.473Z,99.99
2017-06-02T23:10:02.884Z,99.99
2017-06-02T23:15:03.195Z,99.99
2017-06-02T23:20:03.566Z,99.99
2017-06-02T23:25:02.836Z,99.99
2017-06-02T23:30:03.153Z,99.99
2017-06-02T23:35:03.491Z,99.99
2017-06-02T23:40:02.886Z,99.99
2017-06-02T23:45:03.242Z,99.99
2017-06-02T23:50:03.556Z,99.99
2017-06-02T23:55:02.875Z,99.99
